sensor_id;sensor_type;location;lat;lon;timestamp;P1;durP1;ratioP1;P2;durP2;ratioP2
4585;SDS011;2305;50.118;8.952;2022-12-19T00:00:44;27.00;;;13.87;;
4585;SDS011;2305;50.118;8.952;2022-12-19T00:03:12;28.20;;;14.27;;
4585;SDS011;2305;50.118;8.952;2022-12-19T00:05:44;31.13;;;14.23;;
4585;SDS011;2305;50.118;8.952;2022-12-19T00:08:14;24.40;;;13.07;;
4585;SDS011;2305;50.118;8.952;2022-12-19T00:10:43;25.23;;;13.37;;
4585;SDS011;2305;50.118;8.952;2022-12-19T00:13:23;28.77;;;13.70;;
4585;SDS011;2305;50.118;8.952;2022-12-19T00:15:54;27.33;;;13.17;;
4585;SDS011;2305;50.118;8.952;2022-12-19T00:18:26;36.67;;;13.97;;
4585;SDS011;2305;50.118;8.952;2022-12-19T00:20:57;31.37;;;14.30;;
4585;SDS011;2305;50.118;8.952;2022-12-19T00:23:27;27.30;;;14.03;;
4585;SDS011;2305;50.118;8.952;2022-12-19T00:26:04;28.60;;;12.90;;
4585;SDS011;2305;50.118;8.952;2022-12-19T00:28:39;29.73;;;14.13;;
4585;SDS011;2305;50.118;8.952;2022-12-19T00:31:08;26.00;;;13.07;;
4585;SDS011;2305;50.118;8.952;2022-12-19T00:33:39;30.70;;;13.23;;
4585;SDS011;2305;50.118;8.952;2022-12-19T00:36:11;32.87;;;14.07;;
4585;SDS011;2305;50.118;8.952;2022-12-19T00:38:46;32.27;;;14.67;;
4585;SDS011;2305;50.118;8.952;2022-12-19T00:41:16;30.17;;;14.90;;
4585;SDS011;2305;50.118;8.952;2022-12-19T00:43:52;31.27;;;15.20;;
4585;SDS011;2305;50.118;8.952;2022-12-19T00:46:24;35.67;;;15.60;;
4585;SDS011;2305;50.118;8.952;2022-12-19T00:48:54;33.00;;;14.33;;
4585;SDS011;2305;50.118;8.952;2022-12-19T00:51:23;32.40;;;15.27;;
4585;SDS011;2305;50.118;8.952;2022-12-19T00:53:55;32.80;;;15.20;;
4585;SDS011;2305;50.118;8.952;2022-12-19T00:56:25;34.87;;;15.67;;
4585;SDS011;2305;50.118;8.952;2022-12-19T00:59:02;34.97;;;14.70;;
4585;SDS011;2305;50.118;8.952;2022-12-19T01:01:33;32.80;;;15.57;;
4585;SDS011;2305;50.118;8.952;2022-12-19T01:04:05;31.53;;;14.57;;
4585;SDS011;2305;50.118;8.952;2022-12-19T01:06:57;28.73;;;13.90;;
4585;SDS011;2305;50.118;8.952;2022-12-19T01:09:34;29.37;;;13.33;;
4585;SDS011;2305;50.118;8.952;2022-12-19T01:12:09;35.57;;;15.47;;
4585;SDS011;2305;50.118;8.952;2022-12-19T01:14:58;32.90;;;14.93;;
4585;SDS011;2305;50.118;8.952;2022-12-19T01:17:34;26.70;;;13.43;;
4585;SDS011;2305;50.118;8.952;2022-12-19T01:20:15;28.77;;;14.13;;
4585;SDS011;2305;50.118;8.952;2022-12-19T01:22:55;30.10;;;15.20;;
4585;SDS011;2305;50.118;8.952;2022-12-19T01:25:26;28.43;;;15.20;;
4585;SDS011;2305;50.118;8.952;2022-12-19T01:27:55;36.07;;;14.43;;
4585;SDS011;2305;50.118;8.952;2022-12-19T01:30:25;26.40;;;12.93;;
4585;SDS011;2305;50.118;8.952;2022-12-19T01:32:58;35.90;;;14.37;;
4585;SDS011;2305;50.118;8.952;2022-12-19T01:35:30;29.07;;;13.53;;
4585;SDS011;2305;50.118;8.952;2022-12-19T01:37:59;34.10;;;14.43;;
4585;SDS011;2305;50.118;8.952;2022-12-19T01:40:34;28.20;;;14.03;;
4585;SDS011;2305;50.118;8.952;2022-12-19T01:43:03;36.83;;;17.10;;
4585;SDS011;2305;50.118;8.952;2022-12-19T01:45:34;35.60;;;16.30;;
4585;SDS011;2305;50.118;8.952;2022-12-19T01:48:13;31.93;;;14.50;;
4585;SDS011;2305;50.118;8.952;2022-12-19T01:50:50;32.53;;;14.90;;
4585;SDS011;2305;50.118;8.952;2022-12-19T01:53:32;31.13;;;15.63;;
4585;SDS011;2305;50.118;8.952;2022-12-19T01:56:16;26.10;;;13.87;;
4585;SDS011;2305;50.118;8.952;2022-12-19T01:58:53;30.60;;;13.27;;
4585;SDS011;2305;50.118;8.952;2022-12-19T02:01:36;33.47;;;15.10;;
4585;SDS011;2305;50.118;8.952;2022-12-19T02:04:22;32.23;;;15.33;;
4585;SDS011;2305;50.118;8.952;2022-12-19T02:06:56;27.93;;;14.43;;
4585;SDS011;2305;50.118;8.952;2022-12-19T02:09:30;29.87;;;13.63;;
4585;SDS011;2305;50.118;8.952;2022-12-19T02:11:59;28.17;;;13.07;;
4585;SDS011;2305;50.118;8.952;2022-12-19T02:14:31;28.43;;;14.10;;
4585;SDS011;2305;50.118;8.952;2022-12-19T02:17:03;31.93;;;15.30;;
4585;SDS011;2305;50.118;8.952;2022-12-19T02:19:56;31.60;;;16.33;;
4585;SDS011;2305;50.118;8.952;2022-12-19T02:22:44;30.73;;;14.00;;
4585;SDS011;2305;50.118;8.952;2022-12-19T02:25:35;33.13;;;15.63;;
4585;SDS011;2305;50.118;8.952;2022-12-19T02:28:30;27.10;;;13.27;;
4585;SDS011;2305;50.118;8.952;2022-12-19T02:31:21;33.37;;;14.50;;
4585;SDS011;2305;50.118;8.952;2022-12-19T02:34:02;28.70;;;14.07;;
4585;SDS011;2305;50.118;8.952;2022-12-19T02:36:44;31.50;;;14.93;;
4585;SDS011;2305;50.118;8.952;2022-12-19T02:39:22;29.10;;;14.10;;
4585;SDS011;2305;50.118;8.952;2022-12-19T02:41:57;28.33;;;14.43;;
4585;SDS011;2305;50.118;8.952;2022-12-19T02:44:28;22.97;;;13.47;;
4585;SDS011;2305;50.118;8.952;2022-12-19T02:47:03;32.20;;;15.20;;
4585;SDS011;2305;50.118;8.952;2022-12-19T02:49:38;28.90;;;14.60;;
4585;SDS011;2305;50.118;8.952;2022-12-19T02:52:08;33.90;;;15.23;;
4585;SDS011;2305;50.118;8.952;2022-12-19T02:54:37;34.27;;;14.83;;
4585;SDS011;2305;50.118;8.952;2022-12-19T02:57:15;30.63;;;15.90;;
4585;SDS011;2305;50.118;8.952;2022-12-19T02:59:57;30.00;;;14.47;;
4585;SDS011;2305;50.118;8.952;2022-12-19T03:02:36;36.63;;;15.27;;
4585;SDS011;2305;50.118;8.952;2022-12-19T03:05:27;30.20;;;14.23;;
4585;SDS011;2305;50.118;8.952;2022-12-19T03:08:10;31.03;;;14.57;;
4585;SDS011;2305;50.118;8.952;2022-12-19T03:10:54;32.03;;;15.80;;
4585;SDS011;2305;50.118;8.952;2022-12-19T03:13:28;36.23;;;16.33;;
4585;SDS011;2305;50.118;8.952;2022-12-19T03:16:01;30.77;;;15.47;;
4585;SDS011;2305;50.118;8.952;2022-12-19T03:18:40;31.93;;;15.90;;
4585;SDS011;2305;50.118;8.952;2022-12-19T03:21:14;31.60;;;15.50;;
4585;SDS011;2305;50.118;8.952;2022-12-19T03:23:49;33.83;;;16.23;;
4585;SDS011;2305;50.118;8.952;2022-12-19T03:26:24;32.40;;;15.97;;
4585;SDS011;2305;50.118;8.952;2022-12-19T03:28:56;31.27;;;15.43;;
4585;SDS011;2305;50.118;8.952;2022-12-19T03:31:30;38.50;;;17.40;;
4585;SDS011;2305;50.118;8.952;2022-12-19T03:34:02;34.20;;;15.73;;
4585;SDS011;2305;50.118;8.952;2022-12-19T03:36:36;31.73;;;14.87;;
4585;SDS011;2305;50.118;8.952;2022-12-19T03:39:08;33.83;;;15.10;;
4585;SDS011;2305;50.118;8.952;2022-12-19T03:41:43;31.63;;;15.97;;
4585;SDS011;2305;50.118;8.952;2022-12-19T03:44:30;34.90;;;17.27;;
4585;SDS011;2305;50.118;8.952;2022-12-19T03:47:04;35.73;;;15.47;;
4585;SDS011;2305;50.118;8.952;2022-12-19T03:49:40;29.03;;;13.43;;
4585;SDS011;2305;50.118;8.952;2022-12-19T03:52:10;33.50;;;15.40;;
4585;SDS011;2305;50.118;8.952;2022-12-19T03:54:49;34.23;;;16.07;;
4585;SDS011;2305;50.118;8.952;2022-12-19T03:57:24;37.07;;;17.57;;
4585;SDS011;2305;50.118;8.952;2022-12-19T03:59:59;32.50;;;15.47;;
4585;SDS011;2305;50.118;8.952;2022-12-19T04:02:43;30.63;;;15.13;;
4585;SDS011;2305;50.118;8.952;2022-12-19T04:05:18;31.80;;;16.03;;
4585;SDS011;2305;50.118;8.952;2022-12-19T04:07:49;34.67;;;16.00;;
4585;SDS011;2305;50.118;8.952;2022-12-19T04:10:21;34.97;;;15.97;;
4585;SDS011;2305;50.118;8.952;2022-12-19T04:12:53;34.23;;;14.40;;
4585;SDS011;2305;50.118;8.952;2022-12-19T04:15:28;36.83;;;15.57;;
4585;SDS011;2305;50.118;8.952;2022-12-19T04:18:03;33.90;;;15.47;;
4585;SDS011;2305;50.118;8.952;2022-12-19T04:20:41;32.63;;;15.20;;
4585;SDS011;2305;50.118;8.952;2022-12-19T04:23:16;32.63;;;16.23;;
4585;SDS011;2305;50.118;8.952;2022-12-19T04:25:51;35.37;;;16.30;;
4585;SDS011;2305;50.118;8.952;2022-12-19T04:28:29;33.53;;;16.30;;
4585;SDS011;2305;50.118;8.952;2022-12-19T04:31:01;28.13;;;15.53;;
4585;SDS011;2305;50.118;8.952;2022-12-19T04:33:32;31.30;;;15.73;;
4585;SDS011;2305;50.118;8.952;2022-12-19T04:36:03;32.80;;;16.40;;
4585;SDS011;2305;50.118;8.952;2022-12-19T04:38:31;35.30;;;15.30;;
4585;SDS011;2305;50.118;8.952;2022-12-19T04:41:03;28.80;;;14.47;;
4585;SDS011;2305;50.118;8.952;2022-12-19T04:43:30;33.53;;;15.67;;
4585;SDS011;2305;50.118;8.952;2022-12-19T04:46:00;34.77;;;15.50;;
4585;SDS011;2305;50.118;8.952;2022-12-19T04:48:28;33.20;;;14.73;;
4585;SDS011;2305;50.118;8.952;2022-12-19T04:50:59;32.20;;;15.80;;
4585;SDS011;2305;50.118;8.952;2022-12-19T04:53:28;29.67;;;14.17;;
4585;SDS011;2305;50.118;8.952;2022-12-19T04:56:00;38.67;;;16.87;;
4585;SDS011;2305;50.118;8.952;2022-12-19T04:58:28;34.73;;;14.63;;
4585;SDS011;2305;50.118;8.952;2022-12-19T05:00:59;36.17;;;16.10;;
4585;SDS011;2305;50.118;8.952;2022-12-19T05:03:28;40.80;;;16.47;;
4585;SDS011;2305;50.118;8.952;2022-12-19T05:06:04;33.70;;;17.27;;
4585;SDS011;2305;50.118;8.952;2022-12-19T05:08:39;32.13;;;16.17;;
4585;SDS011;2305;50.118;8.952;2022-12-19T05:11:10;27.73;;;15.40;;
4585;SDS011;2305;50.118;8.952;2022-12-19T05:13:48;30.47;;;16.00;;
4585;SDS011;2305;50.118;8.952;2022-12-19T05:16:17;32.90;;;16.20;;
4585;SDS011;2305;50.118;8.952;2022-12-19T05:18:46;35.77;;;16.50;;
4585;SDS011;2305;50.118;8.952;2022-12-19T05:21:19;33.70;;;16.13;;
4585;SDS011;2305;50.118;8.952;2022-12-19T05:23:50;35.33;;;16.97;;
4585;SDS011;2305;50.118;8.952;2022-12-19T05:26:18;36.87;;;16.53;;
4585;SDS011;2305;50.118;8.952;2022-12-19T05:28:51;33.20;;;15.20;;
4585;SDS011;2305;50.118;8.952;2022-12-19T05:31:19;34.07;;;16.47;;
4585;SDS011;2305;50.118;8.952;2022-12-19T05:33:48;37.40;;;16.63;;
4585;SDS011;2305;50.118;8.952;2022-12-19T05:36:16;34.73;;;16.30;;
4585;SDS011;2305;50.118;8.952;2022-12-19T05:38:47;33.07;;;15.50;;
4585;SDS011;2305;50.118;8.952;2022-12-19T05:41:19;32.70;;;15.37;;
4585;SDS011;2305;50.118;8.952;2022-12-19T05:43:50;35.27;;;17.03;;
4585;SDS011;2305;50.118;8.952;2022-12-19T05:46:20;34.53;;;16.40;;
4585;SDS011;2305;50.118;8.952;2022-12-19T05:48:49;34.03;;;16.07;;
4585;SDS011;2305;50.118;8.952;2022-12-19T05:51:19;32.93;;;16.43;;
4585;SDS011;2305;50.118;8.952;2022-12-19T05:53:47;30.13;;;15.87;;
4585;SDS011;2305;50.118;8.952;2022-12-19T05:56:21;28.50;;;15.20;;
4585;SDS011;2305;50.118;8.952;2022-12-19T05:58:49;37.70;;;16.73;;
4585;SDS011;2305;50.118;8.952;2022-12-19T06:01:19;34.87;;;16.80;;
4585;SDS011;2305;50.118;8.952;2022-12-19T06:03:50;40.00;;;15.80;;
4585;SDS011;2305;50.118;8.952;2022-12-19T06:06:22;33.70;;;15.33;;
4585;SDS011;2305;50.118;8.952;2022-12-19T06:08:51;33.17;;;15.60;;
4585;SDS011;2305;50.118;8.952;2022-12-19T06:11:21;30.40;;;15.50;;
4585;SDS011;2305;50.118;8.952;2022-12-19T06:13:52;35.60;;;16.50;;
4585;SDS011;2305;50.118;8.952;2022-12-19T06:16:21;36.87;;;15.90;;
4585;SDS011;2305;50.118;8.952;2022-12-19T06:18:50;33.37;;;15.03;;
4585;SDS011;2305;50.118;8.952;2022-12-19T06:21:20;36.93;;;16.77;;
4585;SDS011;2305;50.118;8.952;2022-12-19T06:23:49;33.90;;;17.57;;
4585;SDS011;2305;50.118;8.952;2022-12-19T06:26:19;38.57;;;17.00;;
4585;SDS011;2305;50.118;8.952;2022-12-19T06:28:51;33.67;;;15.73;;
4585;SDS011;2305;50.118;8.952;2022-12-19T06:31:22;34.73;;;16.00;;
4585;SDS011;2305;50.118;8.952;2022-12-19T06:33:55;33.83;;;16.03;;
4585;SDS011;2305;50.118;8.952;2022-12-19T06:36:29;37.93;;;18.53;;
4585;SDS011;2305;50.118;8.952;2022-12-19T06:38:58;31.23;;;14.70;;
4585;SDS011;2305;50.118;8.952;2022-12-19T06:41:31;31.13;;;15.20;;
4585;SDS011;2305;50.118;8.952;2022-12-19T06:44:17;38.63;;;17.73;;
4585;SDS011;2305;50.118;8.952;2022-12-19T06:46:47;30.50;;;15.37;;
4585;SDS011;2305;50.118;8.952;2022-12-19T06:49:16;34.83;;;16.57;;
4585;SDS011;2305;50.118;8.952;2022-12-19T06:51:44;31.77;;;15.83;;
4585;SDS011;2305;50.118;8.952;2022-12-19T06:54:13;30.07;;;15.57;;
4585;SDS011;2305;50.118;8.952;2022-12-19T06:56:43;30.93;;;15.43;;
4585;SDS011;2305;50.118;8.952;2022-12-19T06:59:13;34.50;;;16.83;;
4585;SDS011;2305;50.118;8.952;2022-12-19T07:01:48;35.13;;;16.97;;
4585;SDS011;2305;50.118;8.952;2022-12-19T07:04:24;32.10;;;14.70;;
4585;SDS011;2305;50.118;8.952;2022-12-19T07:06:56;35.30;;;16.53;;
4585;SDS011;2305;50.118;8.952;2022-12-19T07:09:26;40.27;;;18.17;;
4585;SDS011;2305;50.118;8.952;2022-12-19T07:11:59;35.87;;;15.90;;
4585;SDS011;2305;50.118;8.952;2022-12-19T07:14:27;34.90;;;15.27;;
4585;SDS011;2305;50.118;8.952;2022-12-19T07:16:57;36.40;;;16.30;;
4585;SDS011;2305;50.118;8.952;2022-12-19T07:19:28;45.67;;;18.73;;
4585;SDS011;2305;50.118;8.952;2022-12-19T07:22:00;33.60;;;16.50;;
4585;SDS011;2305;50.118;8.952;2022-12-19T07:24:33;33.77;;;15.77;;
4585;SDS011;2305;50.118;8.952;2022-12-19T07:27:03;31.10;;;14.40;;
4585;SDS011;2305;50.118;8.952;2022-12-19T07:29:33;38.80;;;17.67;;
4585;SDS011;2305;50.118;8.952;2022-12-19T07:32:02;37.33;;;17.17;;
4585;SDS011;2305;50.118;8.952;2022-12-19T07:34:30;34.87;;;15.53;;
4585;SDS011;2305;50.118;8.952;2022-12-19T07:36:58;39.20;;;17.07;;
4585;SDS011;2305;50.118;8.952;2022-12-19T07:39:31;31.20;;;15.60;;
4585;SDS011;2305;50.118;8.952;2022-12-19T07:42:03;37.97;;;16.77;;
4585;SDS011;2305;50.118;8.952;2022-12-19T07:44:37;35.83;;;17.90;;
4585;SDS011;2305;50.118;8.952;2022-12-19T07:47:06;31.27;;;16.03;;
4585;SDS011;2305;50.118;8.952;2022-12-19T07:49:36;35.10;;;15.80;;
4585;SDS011;2305;50.118;8.952;2022-12-19T07:52:05;34.17;;;16.43;;
4585;SDS011;2305;50.118;8.952;2022-12-19T07:54:36;34.47;;;17.90;;
4585;SDS011;2305;50.118;8.952;2022-12-19T07:57:07;36.43;;;16.67;;
4585;SDS011;2305;50.118;8.952;2022-12-19T07:59:35;32.83;;;15.47;;
4585;SDS011;2305;50.118;8.952;2022-12-19T08:02:06;34.53;;;16.70;;
4585;SDS011;2305;50.118;8.952;2022-12-19T08:04:34;37.33;;;18.23;;
4585;SDS011;2305;50.118;8.952;2022-12-19T08:07:03;35.17;;;17.00;;
4585;SDS011;2305;50.118;8.952;2022-12-19T08:09:33;33.03;;;16.20;;
4585;SDS011;2305;50.118;8.952;2022-12-19T08:12:02;35.00;;;17.27;;
4585;SDS011;2305;50.118;8.952;2022-12-19T08:14:34;33.80;;;16.73;;
4585;SDS011;2305;50.118;8.952;2022-12-19T08:17:03;37.73;;;17.07;;
4585;SDS011;2305;50.118;8.952;2022-12-19T08:19:50;34.80;;;15.90;;
4585;SDS011;2305;50.118;8.952;2022-12-19T08:22:18;32.93;;;15.10;;
4585;SDS011;2305;50.118;8.952;2022-12-19T08:24:48;40.10;;;16.40;;
4585;SDS011;2305;50.118;8.952;2022-12-19T08:27:19;37.70;;;17.10;;
4585;SDS011;2305;50.118;8.952;2022-12-19T08:29:48;34.80;;;17.73;;
4585;SDS011;2305;50.118;8.952;2022-12-19T08:32:21;34.60;;;16.10;;
4585;SDS011;2305;50.118;8.952;2022-12-19T08:34:54;33.90;;;16.67;;
4585;SDS011;2305;50.118;8.952;2022-12-19T08:37:23;39.50;;;18.63;;
4585;SDS011;2305;50.118;8.952;2022-12-19T08:39:51;35.27;;;16.60;;
4585;SDS011;2305;50.118;8.952;2022-12-19T08:42:20;36.47;;;17.63;;
4585;SDS011;2305;50.118;8.952;2022-12-19T08:44:50;36.60;;;17.93;;
4585;SDS011;2305;50.118;8.952;2022-12-19T08:47:21;38.33;;;17.40;;
4585;SDS011;2305;50.118;8.952;2022-12-19T08:49:55;34.83;;;15.23;;
4585;SDS011;2305;50.118;8.952;2022-12-19T08:52:26;34.63;;;16.50;;
4585;SDS011;2305;50.118;8.952;2022-12-19T08:54:54;38.13;;;17.27;;
4585;SDS011;2305;50.118;8.952;2022-12-19T08:57:24;34.53;;;17.10;;
4585;SDS011;2305;50.118;8.952;2022-12-19T08:59:54;34.57;;;17.87;;
4585;SDS011;2305;50.118;8.952;2022-12-19T09:02:24;35.43;;;16.97;;
4585;SDS011;2305;50.118;8.952;2022-12-19T09:04:54;34.90;;;16.77;;
4585;SDS011;2305;50.118;8.952;2022-12-19T09:07:44;35.33;;;17.83;;
4585;SDS011;2305;50.118;8.952;2022-12-19T09:10:15;37.97;;;15.57;;
4585;SDS011;2305;50.118;8.952;2022-12-19T09:12:44;38.00;;;17.23;;
4585;SDS011;2305;50.118;8.952;2022-12-19T09:15:23;33.37;;;16.60;;
4585;SDS011;2305;50.118;8.952;2022-12-19T09:17:51;36.43;;;17.10;;
4585;SDS011;2305;50.118;8.952;2022-12-19T09:20:21;40.77;;;19.70;;
4585;SDS011;2305;50.118;8.952;2022-12-19T09:22:49;28.43;;;15.30;;
4585;SDS011;2305;50.118;8.952;2022-12-19T09:25:17;35.13;;;17.30;;
4585;SDS011;2305;50.118;8.952;2022-12-19T09:27:49;36.90;;;16.87;;
4585;SDS011;2305;50.118;8.952;2022-12-19T09:30:40;45.63;;;17.97;;
4585;SDS011;2305;50.118;8.952;2022-12-19T09:33:12;37.33;;;16.07;;
4585;SDS011;2305;50.118;8.952;2022-12-19T09:35:47;38.80;;;16.80;;
4585;SDS011;2305;50.118;8.952;2022-12-19T09:38:17;32.43;;;17.07;;
4585;SDS011;2305;50.118;8.952;2022-12-19T09:40:51;42.20;;;18.10;;
4585;SDS011;2305;50.118;8.952;2022-12-19T09:43:32;35.80;;;17.70;;
4585;SDS011;2305;50.118;8.952;2022-12-19T09:46:18;47.70;;;18.20;;
4585;SDS011;2305;50.118;8.952;2022-12-19T09:48:52;30.33;;;15.50;;
4585;SDS011;2305;50.118;8.952;2022-12-19T09:51:27;36.00;;;17.90;;
4585;SDS011;2305;50.118;8.952;2022-12-19T09:54:03;46.20;;;19.57;;
4585;SDS011;2305;50.118;8.952;2022-12-19T09:56:39;37.67;;;18.83;;
4585;SDS011;2305;50.118;8.952;2022-12-19T09:59:18;37.73;;;18.00;;
4585;SDS011;2305;50.118;8.952;2022-12-19T10:02:13;34.17;;;17.57;;
4585;SDS011;2305;50.118;8.952;2022-12-19T10:04:54;34.87;;;16.37;;
4585;SDS011;2305;50.118;8.952;2022-12-19T10:07:51;35.17;;;17.30;;
4585;SDS011;2305;50.118;8.952;2022-12-19T10:10:38;33.93;;;16.47;;
4585;SDS011;2305;50.118;8.952;2022-12-19T10:13:40;31.97;;;15.90;;
4585;SDS011;2305;50.118;8.952;2022-12-19T10:16:19;40.70;;;19.47;;
4585;SDS011;2305;50.118;8.952;2022-12-19T10:18:56;37.53;;;18.20;;
4585;SDS011;2305;50.118;8.952;2022-12-19T10:21:29;35.47;;;16.83;;
4585;SDS011;2305;50.118;8.952;2022-12-19T10:24:27;36.77;;;18.30;;
4585;SDS011;2305;50.118;8.952;2022-12-19T10:27:17;34.90;;;17.50;;
4585;SDS011;2305;50.118;8.952;2022-12-19T10:29:58;37.13;;;18.13;;
4585;SDS011;2305;50.118;8.952;2022-12-19T10:32:39;38.50;;;18.97;;
4585;SDS011;2305;50.118;8.952;2022-12-19T10:35:18;32.53;;;16.77;;
4585;SDS011;2305;50.118;8.952;2022-12-19T10:37:49;33.90;;;17.37;;
4585;SDS011;2305;50.118;8.952;2022-12-19T10:40:22;39.90;;;18.60;;
4585;SDS011;2305;50.118;8.952;2022-12-19T10:42:56;38.00;;;18.13;;
4585;SDS011;2305;50.118;8.952;2022-12-19T10:45:38;38.83;;;17.97;;
4585;SDS011;2305;50.118;8.952;2022-12-19T10:48:14;37.20;;;16.90;;
4585;SDS011;2305;50.118;8.952;2022-12-19T10:50:49;35.07;;;18.00;;
4585;SDS011;2305;50.118;8.952;2022-12-19T10:53:24;38.63;;;20.53;;
4585;SDS011;2305;50.118;8.952;2022-12-19T10:55:53;37.80;;;18.67;;
4585;SDS011;2305;50.118;8.952;2022-12-19T10:58:27;54.43;;;19.33;;
4585;SDS011;2305;50.118;8.952;2022-12-19T11:01:04;35.40;;;17.60;;
4585;SDS011;2305;50.118;8.952;2022-12-19T11:03:39;31.90;;;16.63;;
4585;SDS011;2305;50.118;8.952;2022-12-19T11:09:25;31.93;;;16.43;;
4585;SDS011;2305;50.118;8.952;2022-12-19T11:11:58;39.83;;;17.97;;
4585;SDS011;2305;50.118;8.952;2022-12-19T11:14:49;32.07;;;15.70;;
4585;SDS011;2305;50.118;8.952;2022-12-19T11:17:40;32.60;;;17.50;;
4585;SDS011;2305;50.118;8.952;2022-12-19T11:20:55;35.70;;;18.17;;
4585;SDS011;2305;50.118;8.952;2022-12-19T11:23:49;42.40;;;17.90;;
4585;SDS011;2305;50.118;8.952;2022-12-19T11:26:40;35.90;;;16.90;;
4585;SDS011;2305;50.118;8.952;2022-12-19T11:29:38;30.53;;;16.10;;
4585;SDS011;2305;50.118;8.952;2022-12-19T11:32:32;45.77;;;17.80;;
4585;SDS011;2305;50.118;8.952;2022-12-19T11:35:15;32.53;;;16.07;;
4585;SDS011;2305;50.118;8.952;2022-12-19T11:37:51;35.63;;;18.90;;
4585;SDS011;2305;50.118;8.952;2022-12-19T11:40:29;34.33;;;18.03;;
4585;SDS011;2305;50.118;8.952;2022-12-19T11:43:02;41.93;;;20.03;;
4585;SDS011;2305;50.118;8.952;2022-12-19T11:45:58;35.97;;;16.77;;
4585;SDS011;2305;50.118;8.952;2022-12-19T11:48:32;40.80;;;18.80;;
4585;SDS011;2305;50.118;8.952;2022-12-19T11:51:06;32.00;;;16.00;;
4585;SDS011;2305;50.118;8.952;2022-12-19T11:53:46;36.27;;;19.50;;
4585;SDS011;2305;50.118;8.952;2022-12-19T11:56:24;34.03;;;17.10;;
4585;SDS011;2305;50.118;8.952;2022-12-19T11:58:55;37.23;;;19.40;;
4585;SDS011;2305;50.118;8.952;2022-12-19T12:01:38;35.90;;;18.87;;
4585;SDS011;2305;50.118;8.952;2022-12-19T12:04:18;39.43;;;17.73;;
4585;SDS011;2305;50.118;8.952;2022-12-19T12:07:05;35.80;;;17.57;;
4585;SDS011;2305;50.118;8.952;2022-12-19T12:09:57;41.23;;;16.80;;
4585;SDS011;2305;50.118;8.952;2022-12-19T12:12:54;35.33;;;18.00;;
4585;SDS011;2305;50.118;8.952;2022-12-19T12:15:53;37.80;;;18.40;;
4585;SDS011;2305;50.118;8.952;2022-12-19T12:18:53;35.67;;;17.97;;
4585;SDS011;2305;50.118;8.952;2022-12-19T12:21:52;29.77;;;16.93;;
4585;SDS011;2305;50.118;8.952;2022-12-19T12:24:55;31.67;;;17.50;;
4585;SDS011;2305;50.118;8.952;2022-12-19T12:27:55;37.67;;;18.80;;
4585;SDS011;2305;50.118;8.952;2022-12-19T12:30:56;36.40;;;18.67;;
4585;SDS011;2305;50.118;8.952;2022-12-19T12:33:56;40.13;;;18.10;;
4585;SDS011;2305;50.118;8.952;2022-12-19T12:36:52;42.63;;;19.03;;
4585;SDS011;2305;50.118;8.952;2022-12-19T12:39:55;37.50;;;18.00;;
4585;SDS011;2305;50.118;8.952;2022-12-19T12:42:35;36.87;;;18.67;;
4585;SDS011;2305;50.118;8.952;2022-12-19T12:45:24;36.57;;;17.37;;
4585;SDS011;2305;50.118;8.952;2022-12-19T12:48:01;39.97;;;19.90;;
4585;SDS011;2305;50.118;8.952;2022-12-19T12:50:32;37.73;;;18.70;;
4585;SDS011;2305;50.118;8.952;2022-12-19T12:53:05;40.00;;;19.03;;
4585;SDS011;2305;50.118;8.952;2022-12-19T12:55:41;39.40;;;17.90;;
4585;SDS011;2305;50.118;8.952;2022-12-19T13:01:33;35.37;;;17.90;;
4585;SDS011;2305;50.118;8.952;2022-12-19T13:04:06;35.93;;;17.13;;
4585;SDS011;2305;50.118;8.952;2022-12-19T13:10:04;36.60;;;19.00;;
4585;SDS011;2305;50.118;8.952;2022-12-19T13:12:51;33.70;;;17.33;;
4585;SDS011;2305;50.118;8.952;2022-12-19T13:15:40;35.30;;;18.07;;
4585;SDS011;2305;50.118;8.952;2022-12-19T13:18:13;38.53;;;19.77;;
4585;SDS011;2305;50.118;8.952;2022-12-19T13:20:57;32.13;;;16.60;;
4585;SDS011;2305;50.118;8.952;2022-12-19T13:32:16;34.80;;;16.80;;
4585;SDS011;2305;50.118;8.952;2022-12-19T13:34:56;38.13;;;19.17;;
4585;SDS011;2305;50.118;8.952;2022-12-19T13:37:45;35.53;;;17.43;;
4585;SDS011;2305;50.118;8.952;2022-12-19T13:40:49;36.13;;;18.70;;
4585;SDS011;2305;50.118;8.952;2022-12-19T13:43:23;36.47;;;18.60;;
4585;SDS011;2305;50.118;8.952;2022-12-19T13:46:20;36.77;;;18.73;;
4585;SDS011;2305;50.118;8.952;2022-12-19T13:48:56;36.87;;;18.07;;
4585;SDS011;2305;50.118;8.952;2022-12-19T13:51:41;34.47;;;17.23;;
4585;SDS011;2305;50.118;8.952;2022-12-19T13:54:17;38.53;;;19.27;;
4585;SDS011;2305;50.118;8.952;2022-12-19T13:56:48;42.67;;;19.40;;
4585;SDS011;2305;50.118;8.952;2022-12-19T13:59:17;35.50;;;18.83;;
4585;SDS011;2305;50.118;8.952;2022-12-19T14:01:47;35.87;;;18.67;;
4585;SDS011;2305;50.118;8.952;2022-12-19T14:04:24;44.13;;;19.30;;
4585;SDS011;2305;50.118;8.952;2022-12-19T14:06:57;41.40;;;18.30;;
4585;SDS011;2305;50.118;8.952;2022-12-19T14:09:29;46.37;;;22.80;;
4585;SDS011;2305;50.118;8.952;2022-12-19T14:12:20;47.40;;;21.00;;
4585;SDS011;2305;50.118;8.952;2022-12-19T14:15:31;41.30;;;18.67;;
4585;SDS011;2305;50.118;8.952;2022-12-19T14:18:08;35.50;;;18.43;;
4585;SDS011;2305;50.118;8.952;2022-12-19T14:21:08;38.73;;;18.50;;
4585;SDS011;2305;50.118;8.952;2022-12-19T14:24:12;38.40;;;19.13;;
4585;SDS011;2305;50.118;8.952;2022-12-19T14:26:44;34.80;;;17.90;;
4585;SDS011;2305;50.118;8.952;2022-12-19T14:29:38;42.50;;;19.30;;
4585;SDS011;2305;50.118;8.952;2022-12-19T14:32:31;37.13;;;18.30;;
4585;SDS011;2305;50.118;8.952;2022-12-19T14:35:25;39.60;;;18.70;;
4585;SDS011;2305;50.118;8.952;2022-12-19T14:38:20;35.10;;;19.63;;
4585;SDS011;2305;50.118;8.952;2022-12-19T14:41:18;39.07;;;18.40;;
4585;SDS011;2305;50.118;8.952;2022-12-19T14:44:14;45.13;;;19.93;;
4585;SDS011;2305;50.118;8.952;2022-12-19T14:47:08;35.07;;;20.20;;
4585;SDS011;2305;50.118;8.952;2022-12-19T14:50:00;40.73;;;20.63;;
4585;SDS011;2305;50.118;8.952;2022-12-19T14:52:49;49.33;;;19.97;;
4585;SDS011;2305;50.118;8.952;2022-12-19T14:55:41;37.47;;;18.13;;
4585;SDS011;2305;50.118;8.952;2022-12-19T14:58:37;80.17;;;22.70;;
4585;SDS011;2305;50.118;8.952;2022-12-19T15:01:22;43.73;;;20.07;;
4585;SDS011;2305;50.118;8.952;2022-12-19T15:03:56;51.80;;;18.30;;
4585;SDS011;2305;50.118;8.952;2022-12-19T15:06:46;40.80;;;20.47;;
4585;SDS011;2305;50.118;8.952;2022-12-19T15:09:37;43.03;;;21.73;;
4585;SDS011;2305;50.118;8.952;2022-12-19T15:12:46;39.07;;;17.70;;
4585;SDS011;2305;50.118;8.952;2022-12-19T15:15:56;42.23;;;20.17;;
4585;SDS011;2305;50.118;8.952;2022-12-19T15:18:36;39.10;;;19.10;;
4585;SDS011;2305;50.118;8.952;2022-12-19T15:21:09;38.17;;;19.10;;
4585;SDS011;2305;50.118;8.952;2022-12-19T15:23:38;34.37;;;18.87;;
4585;SDS011;2305;50.118;8.952;2022-12-19T15:26:10;40.73;;;20.47;;
4585;SDS011;2305;50.118;8.952;2022-12-19T15:28:41;37.77;;;18.70;;
4585;SDS011;2305;50.118;8.952;2022-12-19T15:31:27;36.43;;;18.73;;
4585;SDS011;2305;50.118;8.952;2022-12-19T15:34:01;44.20;;;20.50;;
4585;SDS011;2305;50.118;8.952;2022-12-19T15:37:02;38.40;;;18.50;;
4585;SDS011;2305;50.118;8.952;2022-12-19T15:39:31;40.47;;;19.93;;
4585;SDS011;2305;50.118;8.952;2022-12-19T15:42:02;37.40;;;19.63;;
4585;SDS011;2305;50.118;8.952;2022-12-19T15:44:34;36.87;;;19.73;;
4585;SDS011;2305;50.118;8.952;2022-12-19T15:47:16;43.67;;;20.97;;
4585;SDS011;2305;50.118;8.952;2022-12-19T15:49:48;41.57;;;19.97;;
4585;SDS011;2305;50.118;8.952;2022-12-19T15:52:17;47.93;;;19.97;;
4585;SDS011;2305;50.118;8.952;2022-12-19T15:54:53;49.23;;;20.67;;
4585;SDS011;2305;50.118;8.952;2022-12-19T15:57:25;37.43;;;19.60;;
4585;SDS011;2305;50.118;8.952;2022-12-19T15:59:58;45.93;;;21.47;;
4585;SDS011;2305;50.118;8.952;2022-12-19T16:02:31;43.60;;;19.67;;
4585;SDS011;2305;50.118;8.952;2022-12-19T16:05:22;47.20;;;20.00;;